Time;durP1;ratioP1;P1;durP2;ratioP2;P2;SDS_P1;SDS_P2;PMS_P1;PMS_P2;Temp;Humidity;BMP_temperature;BMP_pressure;BME280_temperature;BME280_humidity;BME280_pressure;Samples;Min_cycle;Max_cycle;Signal;HPM_P1;HPM_P2
2023/12/14 00:01:45;;;;;;;4.38;1.13;;;6.40;99.90;;;;;;5015970;28;20017;-80
2023/12/14 00:04:12;;;;;;;1.10;0.70;;;6.40;99.90;;;;;;5018799;28;20025;-79
2023/12/14 00:06:38;;;;;;;3.25;1.20;;;6.40;99.90;;;;;;5016176;28;20032;-80
2023/12/14 00:09:03;;;;;;;2.17;1.13;;;6.40;99.90;;;;;;5019602;28;20065;-80
2023/12/14 00:11:29;;;;;;;1.80;1.13;;;6.40;99.90;;;;;;5013590;28;20053;-79
2023/12/14 00:13:55;;;;;;;1.73;0.93;;;6.40;99.90;;;;;;5014601;28;20386;-79
2023/12/14 00:16:20;;;;;;;1.63;0.85;;;6.40;99.90;;;;;;5013829;28;20100;-80
2023/12/14 00:18:46;;;;;;;2.42;0.98;;;6.50;99.90;;;;;;5015285;28;20041;-81
2023/12/14 00:21:11;;;;;;;1.70;1.00;;;6.50;99.90;;;;;;5011399;28;20046;-80
2023/12/14 00:23:37;;;;;;;3.00;1.23;;;6.40;99.90;;;;;;5021021;28;20041;-80
2023/12/14 00:26:03;;;;;;;4.10;1.10;;;6.50;99.90;;;;;;4995840;28;20056;-80
2023/12/14 00:28:29;;;;;;;2.05;1.30;;;6.40;99.90;;;;;;5023624;28;20041;-80
2023/12/14 00:30:54;;;;;;;2.25;1.30;;;6.50;99.90;;;;;;5002433;28;20710;-81
2023/12/14 00:33:20;;;;;;;3.55;1.20;;;6.50;99.90;;;;;;5014689;28;20033;-81
2023/12/14 00:35:46;;;;;;;3.17;1.80;;;6.50;99.90;;;;;;5005439;28;20126;-81
2023/12/14 00:38:11;;;;;;;2.22;1.15;;;6.50;99.90;;;;;;5025697;28;20026;-81
2023/12/14 00:40:37;;;;;;;3.25;1.40;;;6.50;99.90;;;;;;5022681;28;20044;-79
2023/12/14 00:43:02;;;;;;;5.97;1.83;;;6.50;99.90;;;;;;5031166;28;20034;-80
2023/12/14 00:45:28;;;;;;;2.80;1.70;;;6.50;99.90;;;;;;5026051;28;20056;-80
2023/12/14 00:47:53;;;;;;;2.08;1.38;;;6.50;99.90;;;;;;5023214;28;20760;-81
2023/12/14 00:50:19;;;;;;;2.00;1.50;;;6.50;99.90;;;;;;5024220;28;20017;-81
2023/12/14 00:52:44;;;;;;;1.58;1.15;;;6.60;99.90;;;;;;5022859;28;20041;-80
2023/12/14 00:55:10;;;;;;;2.33;1.00;;;6.60;99.90;;;;;;5006676;28;20045;-80
2023/12/14 00:57:36;;;;;;;1.90;1.17;;;6.50;99.90;;;;;;5016259;28;20699;-80
2023/12/14 01:00:01;;;;;;;6.60;1.08;;;6.50;99.90;;;;;;5020088;28;20037;-81
2023/12/14 01:02:27;;;;;;;1.98;1.30;;;6.50;99.90;;;;;;5023381;28;20037;-80
2023/12/14 01:04:52;;;;;;;2.58;1.08;;;6.60;99.90;;;;;;5023848;28;20759;-80
2023/12/14 01:07:18;;;;;;;1.95;1.23;;;6.50;99.90;;;;;;5022520;28;20033;-81
2023/12/14 01:09:43;;;;;;;1.83;1.08;;;6.50;99.90;;;;;;5023174;28;20037;-82
2023/12/14 01:12:09;;;;;;;2.30;1.30;;;6.50;99.90;;;;;;5016423;28;20041;-80
2023/12/14 01:14:35;;;;;;;2.00;1.13;;;6.50;99.90;;;;;;5021117;28;20029;-80
2023/12/14 01:17:00;;;;;;;2.13;1.30;;;6.50;99.90;;;;;;5021289;28;20068;-81
2023/12/14 01:19:26;;;;;;;2.72;1.10;;;6.60;99.90;;;;;;5018686;28;20101;-80
2023/12/14 01:21:52;;;;;;;3.95;1.27;;;6.60;99.90;;;;;;5015939;28;20025;-80
2023/12/14 01:24:17;;;;;;;3.97;1.20;;;6.60;99.90;;;;;;5017584;28;20021;-82
2023/12/14 01:26:43;;;;;;;3.47;1.20;;;6.70;99.90;;;;;;5018066;28;20095;-80
2023/12/14 01:29:08;;;;;;;2.13;1.15;;;6.60;99.90;;;;;;5022206;28;20029;-80
2023/12/14 01:31:34;;;;;;;2.63;1.15;;;6.70;99.90;;;;;;5023605;28;20045;-80
2023/12/14 01:33:59;;;;;;;4.20;1.20;;;6.70;99.90;;;;;;5024200;28;20093;-80
2023/12/14 01:36:26;;;;;;;3.03;1.30;;;6.70;99.90;;;;;;5015833;28;20422;-80
2023/12/14 01:38:52;;;;;;;2.15;1.10;;;6.70;99.90;;;;;;5022064;28;20041;-80
2023/12/14 01:41:18;;;;;;;3.13;1.90;;;6.70;99.90;;;;;;5015643;28;20029;-80
2023/12/14 01:43:44;;;;;;;20.08;1.83;;;6.60;99.90;;;;;;5021231;28;20561;-80
2023/12/14 01:46:10;;;;;;;1.70;1.00;;;6.70;99.90;;;;;;5017820;28;20056;-80
2023/12/14 01:48:35;;;;;;;1.65;0.88;;;6.70;99.90;;;;;;5018962;28;20053;-80
2023/12/14 01:51:01;;;;;;;1.17;0.77;;;6.60;99.90;;;;;;5017756;28;20030;-80
2023/12/14 01:53:27;;;;;;;1.45;0.80;;;6.70;99.90;;;;;;5022340;28;20033;-82
2023/12/14 01:55:52;;;;;;;1.83;0.90;;;6.70;99.90;;;;;;5018099;28;20038;-81
2023/12/14 01:58:18;;;;;;;2.83;0.98;;;6.70;99.90;;;;;;5020168;28;20033;-81
2023/12/14 02:01:03;;;;;;;2.20;1.13;;;6.70;99.90;;;;;;5019817;28;20090;-81
2023/12/14 02:03:29;;;;;;;1.83;1.00;;;6.70;99.90;;;;;;5020469;28;20029;-81
2023/12/14 02:05:55;;;;;;;1.65;1.05;;;6.70;99.90;;;;;;5019741;28;20029;-81
2023/12/14 02:08:20;;;;;;;2.03;0.85;;;6.80;99.90;;;;;;5023944;28;20398;-81
2023/12/14 02:10:48;;;;;;;2.90;1.23;;;6.80;99.90;;;;;;5022381;28;20087;-81
2023/12/14 02:13:13;;;;;;;1.85;0.98;;;6.80;99.90;;;;;;5015136;28;20541;-81
2023/12/14 02:15:39;;;;;;;2.03;1.17;;;6.80;99.90;;;;;;5017620;28;20029;-81
2023/12/14 02:18:04;;;;;;;1.35;0.70;;;6.80;99.90;;;;;;5023639;28;20151;-80
2023/12/14 02:20:30;;;;;;;2.38;0.98;;;6.80;99.90;;;;;;5026717;28;20038;-81
2023/12/14 02:22:56;;;;;;;2.80;1.00;;;6.80;99.90;;;;;;5020498;28;20082;-81
2023/12/14 02:25:23;;;;;;;1.75;0.90;;;6.80;99.90;;;;;;5024534;28;20105;-81
2023/12/14 02:27:50;;;;;;;2.63;0.80;;;6.80;99.90;;;;;;5022240;28;20026;-81
2023/12/14 02:30:16;;;;;;;3.03;1.10;;;6.80;99.90;;;;;;5014959;28;20058;-81
2023/12/14 02:32:42;;;;;;;2.20;0.90;;;6.80;99.90;;;;;;5016725;28;20040;-81
2023/12/14 02:35:08;;;;;;;2.17;1.10;;;6.80;99.90;;;;;;5019418;28;20069;-80
2023/12/14 02:37:36;;;;;;;3.85;1.10;;;6.80;99.90;;;;;;5003523;28;20026;-80
2023/12/14 02:40:03;;;;;;;2.50;0.95;;;6.80;99.90;;;;;;5010771;28;20030;-81
2023/12/14 02:42:29;;;;;;;3.38;1.10;;;6.80;99.90;;;;;;5017386;28;20232;-81
2023/12/14 02:44:54;;;;;;;2.30;0.95;;;6.80;99.90;;;;;;5017920;28;20483;-81
2023/12/14 02:47:20;;;;;;;2.95;1.00;;;6.80;99.90;;;;;;5020578;28;20429;-81
2023/12/14 02:49:45;;;;;;;1.50;0.98;;;6.70;99.90;;;;;;5014784;28;20028;-80
2023/12/14 02:52:11;;;;;;;1.90;1.08;;;6.70;99.90;;;;;;5021282;28;20034;-82
2023/12/14 02:54:39;;;;;;;2.45;1.15;;;6.70;99.90;;;;;;4998296;28;20034;-80
2023/12/14 02:57:05;;;;;;;2.05;1.08;;;6.60;99.90;;;;;;5023098;28;20069;-80
2023/12/14 02:59:30;;;;;;;3.78;1.27;;;6.60;99.90;;;;;;5017824;28;20033;-80
2023/12/14 03:01:56;;;;;;;2.42;1.13;;;6.60;99.90;;;;;;5019861;28;20108;-80
2023/12/14 03:04:21;;;;;;;2.08;0.80;;;6.50;99.90;;;;;;5003478;28;20021;-80
2023/12/14 03:06:47;;;;;;;3.13;0.90;;;6.50;99.90;;;;;;5016141;28;20133;-80
2023/12/14 03:09:12;;;;;;;1.50;0.80;;;6.50;99.90;;;;;;5016560;28;20030;-80
2023/12/14 03:11:38;;;;;;;2.38;0.95;;;6.50;99.90;;;;;;5019107;28;20079;-81
2023/12/14 03:14:04;;;;;;;2.80;0.65;;;6.50;99.90;;;;;;5020738;28;20040;-81
2023/12/14 03:16:29;;;;;;;3.15;0.85;;;6.50;99.90;;;;;;5020765;28;20564;-81
2023/12/14 03:18:56;;;;;;;1.30;0.77;;;6.50;99.90;;;;;;5016783;28;20097;-80
2023/12/14 03:21:22;;;;;;;1.25;0.75;;;6.50;99.90;;;;;;5021964;28;20089;-79
2023/12/14 03:23:48;;;;;;;2.15;0.77;;;6.50;99.90;;;;;;5015818;28;20058;-80
2023/12/14 03:26:13;;;;;;;1.73;0.70;;;6.50;99.90;;;;;;5016622;28;20037;-81
2023/12/14 03:28:39;;;;;;;1.15;0.57;;;6.50;99.90;;;;;;5018580;28;20597;-79
2023/12/14 03:31:05;;;;;;;1.48;0.63;;;6.50;99.90;;;;;;5016939;28;20034;-81
2023/12/14 03:33:30;;;;;;;2.30;0.93;;;6.50;99.90;;;;;;5023824;28;20042;-80
2023/12/14 03:35:56;;;;;;;2.08;0.55;;;6.50;99.90;;;;;;5013187;28;20038;-80
2023/12/14 03:38:22;;;;;;;1.25;0.70;;;6.50;99.90;;;;;;5005383;28;20546;-80
2023/12/14 03:40:47;;;;;;;1.95;0.60;;;6.60;99.90;;;;;;5016629;28;20064;-81
2023/12/14 03:43:13;;;;;;;0.70;0.60;;;6.60;99.90;;;;;;4999573;28;20026;-81
2023/12/14 03:45:38;;;;;;;0.98;0.50;;;6.60;99.90;;;;;;5002494;28;20117;-81
2023/12/14 03:48:04;;;;;;;2.70;0.80;;;6.60;99.90;;;;;;5004569;28;20036;-81
2023/12/14 03:50:30;;;;;;;2.63;0.70;;;6.60;99.90;;;;;;5013938;28;20028;-82
2023/12/14 03:52:55;;;;;;;1.13;0.52;;;6.60;99.90;;;;;;5017527;28;20080;-82
2023/12/14 03:55:21;;;;;;;1.90;0.50;;;6.70;99.90;;;;;;5017406;28;20045;-80
2023/12/14 03:57:47;;;;;;;1.45;0.70;;;6.60;99.90;;;;;;5013106;28;20033;-80
2023/12/14 04:00:13;;;;;;;1.67;0.80;;;6.60;99.90;;;;;;5029181;28;20069;-80
2023/12/14 04:02:40;;;;;;;1.42;0.60;;;6.60;99.90;;;;;;4998786;28;20038;-81
2023/12/14 04:05:09;;;;;;;0.45;0.40;;;6.60;99.90;;;;;;5018405;28;20026;-81
2023/12/14 04:07:40;;;;;;;1.92;0.82;;;6.60;99.90;;;;;;5019145;28;20359;-81
2023/12/14 04:10:15;;;;;;;2.45;1.00;;;6.60;99.90;;;;;;5023389;28;20033;-80
2023/12/14 04:12:41;;;;;;;2.08;1.02;;;6.60;99.90;;;;;;5015396;28;20466;-80
2023/12/14 04:15:09;;;;;;;3.33;1.00;;;6.60;99.90;;;;;;5017347;28;20033;-80
2023/12/14 04:17:35;;;;;;;2.72;0.80;;;6.60;99.90;;;;;;5018946;28;20041;-80
2023/12/14 04:20:02;;;;;;;2.83;1.10;;;6.60;99.90;;;;;;5001521;28;20273;-82
2023/12/14 04:22:28;;;;;;;1.15;0.73;;;6.60;99.90;;;;;;4996799;28;20037;-81
2023/12/14 04:24:56;;;;;;;3.22;1.30;;;6.70;99.90;;;;;;5023404;28;20026;-79
2023/12/14 04:27:28;;;;;;;1.98;1.10;;;6.60;99.90;;;;;;5024790;28;20514;-82
2023/12/14 04:29:54;;;;;;;3.25;1.40;;;6.70;99.90;;;;;;5009690;28;20068;-81
2023/12/14 04:32:19;;;;;;;1.73;1.25;;;6.60;99.90;;;;;;5022716;28;20038;-81
2023/12/14 04:34:45;;;;;;;2.58;1.42;;;6.70;99.90;;;;;;5017254;28;20026;-81
2023/12/14 04:37:11;;;;;;;3.40;1.58;;;6.70;99.90;;;;;;5021317;28;20041;-81
2023/12/14 04:39:36;;;;;;;2.03;0.80;;;6.70;99.90;;;;;;5019378;28;20037;-80
2023/12/14 04:42:02;;;;;;;2.60;1.02;;;6.70;99.90;;;;;;5019587;28;20159;-82
2023/12/14 04:44:27;;;;;;;1.42;0.82;;;6.60;99.90;;;;;;5015279;28;20037;-80
2023/12/14 04:46:53;;;;;;;1.90;0.98;;;6.60;99.90;;;;;;5020802;28;20054;-80
2023/12/14 04:49:19;;;;;;;1.88;0.88;;;6.60;99.90;;;;;;5020758;28;20030;-81
2023/12/14 04:51:45;;;;;;;1.10;0.70;;;6.70;99.90;;;;;;5016068;28;20034;-80
2023/12/14 04:54:10;;;;;;;1.33;0.90;;;6.70;99.90;;;;;;5020468;28;20042;-80
2023/12/14 04:56:36;;;;;;;2.13;0.80;;;6.70;99.90;;;;;;5020336;28;20099;-81
2023/12/14 04:59:02;;;;;;;1.65;0.90;;;6.60;99.90;;;;;;5019989;28;20034;-80
2023/12/14 05:01:27;;;;;;;1.55;0.90;;;6.70;99.90;;;;;;5018240;28;20026;-80
2023/12/14 05:03:53;;;;;;;1.50;0.70;;;6.70;99.90;;;;;;5014922;28;20038;-79
2023/12/14 05:06:19;;;;;;;1.85;1.00;;;6.60;99.90;;;;;;5017480;28;20381;-82
2023/12/14 05:08:45;;;;;;;1.60;0.93;;;6.70;99.90;;;;;;5003473;28;20025;-81
2023/12/14 05:11:12;;;;;;;1.58;1.15;;;6.70;99.90;;;;;;5018436;28;20061;-80
2023/12/14 05:13:38;;;;;;;2.25;1.30;;;6.70;99.90;;;;;;5012597;28;20089;-80
2023/12/14 05:16:04;;;;;;;1.98;0.60;;;6.70;99.90;;;;;;5017681;28;20057;-80
2023/12/14 05:18:29;;;;;;;1.15;0.70;;;6.70;99.90;;;;;;5019439;28;20047;-81
2023/12/14 05:20:55;;;;;;;1.48;0.90;;;6.60;99.90;;;;;;5015908;28;20049;-81
2023/12/14 05:23:21;;;;;;;1.52;0.88;;;6.70;99.90;;;;;;5018079;28;20033;-81
2023/12/14 05:25:47;;;;;;;1.38;0.80;;;6.70;99.90;;;;;;4998112;28;20125;-81
2023/12/14 05:28:13;;;;;;;2.15;1.08;;;6.70;99.90;;;;;;5017925;28;20032;-81
2023/12/14 05:30:38;;;;;;;3.42;1.20;;;6.70;99.90;;;;;;5014396;28;20390;-80
2023/12/14 05:33:04;;;;;;;2.42;1.02;;;6.70;99.90;;;;;;5017299;28;20164;-81
2023/12/14 05:35:29;;;;;;;1.50;1.00;;;6.70;99.90;;;;;;5020350;28;20105;-82
2023/12/14 05:37:55;;;;;;;2.42;1.00;;;6.70;99.90;;;;;;5022351;28;20091;-82
2023/12/14 05:40:20;;;;;;;1.60;0.90;;;6.70;99.90;;;;;;5020478;28;20030;-81
2023/12/14 05:42:46;;;;;;;3.05;1.10;;;6.70;99.90;;;;;;4999728;28;20213;-80
2023/12/14 05:45:12;;;;;;;1.65;1.10;;;6.70;99.90;;;;;;5015782;28;20041;-80
2023/12/14 05:47:38;;;;;;;1.55;0.93;;;6.70;99.90;;;;;;5016866;28;20050;-80
2023/12/14 05:50:04;;;;;;;2.47;0.90;;;6.70;99.90;;;;;;5020412;28;20060;-80
2023/12/14 05:52:33;;;;;;;2.05;1.00;;;6.70;99.90;;;;;;5004480;28;20037;-81
2023/12/14 05:54:58;;;;;;;1.85;1.13;;;6.70;99.90;;;;;;5023852;28;20026;-81
2023/12/14 05:57:24;;;;;;;2.25;1.10;;;6.60;99.90;;;;;;5019944;28;20049;-81
2023/12/14 05:59:51;;;;;;;3.40;1.73;;;6.70;99.90;;;;;;5036235;28;20069;-80
2023/12/14 06:02:16;;;;;;;3.25;2.10;;;6.70;99.90;;;;;;5000499;28;20026;-80
2023/12/14 06:04:42;;;;;;;3.60;1.80;;;6.70;99.90;;;;;;5012373;28;20092;-81
2023/12/14 06:07:07;;;;;;;5.07;2.08;;;6.70;99.90;;;;;;5011839;28;20026;-81
2023/12/14 06:09:35;;;;;;;3.47;2.13;;;6.60;99.90;;;;;;5016586;28;20030;-81
2023/12/14 06:12:02;;;;;;;3.17;2.17;;;6.70;99.90;;;;;;5011775;28;20094;-81
2023/12/14 06:14:28;;;;;;;4.13;2.20;;;6.60;99.90;;;;;;5014486;28;20101;-81
2023/12/14 06:16:53;;;;;;;4.95;1.75;;;6.60;99.90;;;;;;5017099;28;20121;-81
2023/12/14 06:19:19;;;;;;;4.60;2.70;;;6.60;99.90;;;;;;5011932;28;20052;-83
2023/12/14 06:21:45;;;;;;;4.00;2.75;;;6.60;99.90;;;;;;5016568;28;20418;-81
2023/12/14 06:24:10;;;;;;;5.07;2.58;;;6.60;99.90;;;;;;5009581;28;20518;-80
2023/12/14 06:26:43;;;;;;;4.35;2.88;;;6.60;99.90;;;;;;5015667;28;20030;-81
2023/12/14 06:29:10;;;;;;;4.80;3.00;;;6.60;99.90;;;;;;5010735;28;20052;-81
2023/12/14 06:31:36;;;;;;;4.70;2.38;;;6.60;99.90;;;;;;5008296;28;20036;-81
2023/12/14 06:34:03;;;;;;;3.42;2.03;;;6.60;99.90;;;;;;5013929;28;20096;-81
2023/12/14 06:36:30;;;;;;;7.68;3.28;;;6.60;99.90;;;;;;5007846;28;20026;-80
2023/12/14 06:38:56;;;;;;;9.02;4.13;;;6.70;99.90;;;;;;5013486;28;20103;-80
2023/12/14 06:41:22;;;;;;;5.93;3.10;;;6.60;99.90;;;;;;5019301;28;20493;-80
2023/12/14 06:43:48;;;;;;;6.25;3.00;;;6.60;99.90;;;;;;5013791;28;20045;-82
2023/12/14 06:46:14;;;;;;;7.68;2.90;;;6.60;99.90;;;;;;5009478;28;20034;-79
2023/12/14 06:48:40;;;;;;;4.63;3.08;;;6.60;99.90;;;;;;5018828;28;20072;-79
2023/12/14 06:51:06;;;;;;;7.03;3.92;;;6.60;99.90;;;;;;5008053;28;20039;-80
2023/12/14 06:53:31;;;;;;;6.70;4.32;;;6.60;99.90;;;;;;5011815;28;20042;-80
2023/12/14 06:55:57;;;;;;;4.63;3.42;;;6.60;99.90;;;;;;5013917;28;20108;-80
2023/12/14 06:58:22;;;;;;;5.25;3.53;;;6.60;99.90;;;;;;5013633;28;20030;-80
2023/12/14 07:00:48;;;;;;;5.43;3.05;;;6.60;99.90;;;;;;5017194;28;20483;-79
2023/12/14 07:03:14;;;;;;;5.97;3.50;;;6.60;99.90;;;;;;4993394;28;20157;-81
2023/12/14 07:05:39;;;;;;;6.70;4.20;;;6.60;99.90;;;;;;5008929;28;20026;-81
2023/12/14 07:08:05;;;;;;;4.93;3.30;;;6.70;99.90;;;;;;5019800;28;20044;-83
2023/12/14 07:10:31;;;;;;;6.28;3.65;;;6.60;99.90;;;;;;5015081;28;20041;-80
2023/12/14 07:12:56;;;;;;;6.43;3.30;;;6.60;99.90;;;;;;5018802;28;20437;-80
2023/12/14 07:15:22;;;;;;;3.95;2.83;;;6.70;99.90;;;;;;5006313;28;20053;-80
2023/12/14 07:17:48;;;;;;;5.35;3.28;;;6.70;99.90;;;;;;4989893;28;20041;-80
2023/12/14 07:20:13;;;;;;;4.85;3.08;;;6.70;99.90;;;;;;5010734;28;20033;-80
2023/12/14 07:22:39;;;;;;;3.72;2.28;;;6.70;99.90;;;;;;5010209;28;20040;-80
2023/12/14 07:25:04;;;;;;;3.03;2.30;;;6.70;99.90;;;;;;5016055;28;20069;-81
2023/12/14 07:27:30;;;;;;;4.53;2.38;;;6.70;99.90;;;;;;5016079;28;20463;-81
2023/12/14 07:29:56;;;;;;;6.82;2.63;;;6.70;99.90;;;;;;5004795;28;20063;-81
2023/12/14 07:32:21;;;;;;;4.65;2.80;;;6.70;99.90;;;;;;5012890;28;20041;-81
2023/12/14 07:34:47;;;;;;;4.95;2.30;;;6.70;99.90;;;;;;5015432;28;20038;-81
2023/12/14 07:37:13;;;;;;;4.68;2.95;;;6.70;99.90;;;;;;5006851;28;20077;-82
2023/12/14 07:39:39;;;;;;;5.32;2.50;;;6.70;99.90;;;;;;5017905;28;20021;-79
2023/12/14 07:42:07;;;;;;;3.88;2.25;;;6.70;99.90;;;;;;5012807;28;20048;-81
2023/12/14 07:44:33;;;;;;;6.05;2.92;;;6.70;99.90;;;;;;4990825;28;20022;-82
2023/12/14 07:47:00;;;;;;;5.00;2.95;;;6.70;99.90;;;;;;4993902;28;20517;-82
2023/12/14 07:49:25;;;;;;;3.47;2.35;;;6.70;99.90;;;;;;4990581;28;20020;-80
2023/12/14 07:51:51;;;;;;;4.82;2.47;;;6.70;99.90;;;;;;5025940;28;20117;-80
2023/12/14 07:54:18;;;;;;;3.92;2.45;;;6.70;99.90;;;;;;5008367;28;20089;-80
2023/12/14 07:56:44;;;;;;;5.20;2.15;;;6.70;99.90;;;;;;4997822;28;20058;-81
2023/12/14 07:59:09;;;;;;;3.00;1.95;;;6.70;99.90;;;;;;5015346;28;20023;-81
2023/12/14 08:01:35;;;;;;;4.47;2.00;;;6.70;99.90;;;;;;5018858;28;20030;-81
2023/12/14 08:04:01;;;;;;;5.03;1.90;;;6.70;99.90;;;;;;5019461;28;20452;-82
2023/12/14 08:06:27;;;;;;;12.75;6.90;;;6.70;99.90;;;;;;5024195;28;20029;-82
2023/12/14 08:08:53;;;;;;;48.90;25.80;;;6.70;99.90;;;;;;5035241;28;21088;-81
2023/12/14 08:11:18;;;;;;;58.47;27.63;;;6.70;99.90;;;;;;5042924;28;20057;-81
2023/12/14 08:13:47;;;;;;;47.75;23.15;;;6.70;99.90;;;;;;5042556;28;20025;-81
2023/12/14 08:16:13;;;;;;;22.65;12.40;;;6.70;99.90;;;;;;5038295;28;20077;-81
2023/12/14 08:18:39;;;;;;;8.65;5.45;;;6.70;99.90;;;;;;5039053;28;20018;-81
2023/12/14 08:21:04;;;;;;;7.68;3.88;;;6.70;99.90;;;;;;5034817;28;20026;-81
2023/12/14 08:23:30;;;;;;;3.95;2.80;;;6.80;99.90;;;;;;5034707;28;20034;-81
2023/12/14 08:25:57;;;;;;;4.18;2.80;;;6.80;99.90;;;;;;5022403;28;20042;-81
2023/12/14 08:28:23;;;;;;;3.60;2.42;;;6.80;99.90;;;;;;5021047;28;20108;-81
2023/12/14 08:30:49;;;;;;;3.90;2.40;;;6.80;99.90;;;;;;5017913;28;20525;-81
2023/12/14 08:33:15;;;;;;;6.15;2.50;;;6.80;99.90;;;;;;5019614;28;20030;-81
2023/12/14 08:35:41;;;;;;;3.30;2.25;;;6.80;99.90;;;;;;5016945;28;20048;-82
2023/12/14 08:38:07;;;;;;;5.88;2.50;;;6.80;99.90;;;;;;5015025;28;20574;-82
2023/12/14 08:40:33;;;;;;;3.65;2.50;;;6.90;99.90;;;;;;5023834;28;20026;-81
2023/12/14 08:42:58;;;;;;;5.30;2.40;;;6.90;99.90;;;;;;5019263;28;20042;-81
2023/12/14 08:45:24;;;;;;;5.72;3.20;;;6.90;99.90;;;;;;5020134;28;20040;-79
2023/12/14 08:47:50;;;;;;;4.07;2.40;;;6.90;99.90;;;;;;5016210;28;20022;-80
2023/12/14 08:50:16;;;;;;;4.35;2.40;;;6.90;99.90;;;;;;5016856;28;20053;-81
2023/12/14 08:52:41;;;;;;;4.28;2.45;;;7.00;99.90;;;;;;5009637;28;20030;-81
2023/12/14 08:55:08;;;;;;;6.38;2.53;;;7.00;99.90;;;;;;5015171;28;20482;-81
2023/12/14 08:57:35;;;;;;;5.38;2.22;;;7.00;99.90;;;;;;5002552;28;20030;-82
2023/12/14 09:00:04;;;;;;;3.72;2.30;;;7.00;99.90;;;;;;5013368;28;20034;-81
2023/12/14 09:02:33;;;;;;;2.90;1.77;;;7.00;99.90;;;;;;5002316;28;20032;-80
2023/12/14 09:04:59;;;;;;;3.45;2.10;;;7.00;99.90;;;;;;5012972;28;20144;-82
2023/12/14 09:07:24;;;;;;;2.17;1.88;;;7.10;99.90;;;;;;5013861;28;20455;-80
2023/12/14 09:09:50;;;;;;;3.83;1.83;;;7.10;99.90;;;;;;5017364;28;20050;-80
2023/12/14 09:12:16;;;;;;;2.58;1.60;;;7.10;99.90;;;;;;5019105;28;20030;-81
2023/12/14 09:14:41;;;;;;;2.08;1.17;;;7.10;99.90;;;;;;5018558;28;20053;-80
2023/12/14 09:17:07;;;;;;;2.55;1.45;;;7.20;99.90;;;;;;5015586;28;20398;-81
2023/12/14 09:19:33;;;;;;;1.58;1.08;;;7.20;99.90;;;;;;5010336;28;20087;-81
2023/12/14 09:21:59;;;;;;;3.75;1.40;;;7.20;99.90;;;;;;5002358;28;20029;-81
2023/12/14 09:24:24;;;;;;;1.83;1.00;;;7.20;99.90;;;;;;5017303;28;20049;-81
2023/12/14 09:26:50;;;;;;;1.60;1.23;;;7.20;99.90;;;;;;5011307;28;20025;-80
2023/12/14 09:29:16;;;;;;;2.15;1.20;;;7.30;99.90;;;;;;5018929;28;20025;-81
2023/12/14 09:31:43;;;;;;;1.70;1.02;;;7.30;99.90;;;;;;5017683;28;20034;-82
2023/12/14 09:34:10;;;;;;;1.80;1.20;;;7.30;99.90;;;;;;5015937;28;20041;-81
2023/12/14 09:36:36;;;;;;;1.50;0.90;;;7.40;99.90;;;;;;5018201;28;20410;-82
2023/12/14 09:39:03;;;;;;;2.38;0.88;;;7.40;99.90;;;;;;5012133;28;20775;-81
2023/12/14 09:41:29;;;;;;;2.00;0.93;;;7.40;99.90;;;;;;4997961;28;20027;-82
2023/12/14 09:43:55;;;;;;;2.03;1.13;;;7.40;99.90;;;;;;5011248;28;20445;-81
2023/12/14 09:46:23;;;;;;;1.95;1.10;;;7.40;99.90;;;;;;5001339;28;20026;-81
2023/12/14 09:48:50;;;;;;;3.63;1.35;;;7.50;99.90;;;;;;5020749;28;20035;-81
2023/12/14 09:51:16;;;;;;;1.02;0.70;;;7.50;99.90;;;;;;5016158;28;20034;-81
2023/12/14 09:53:42;;;;;;;1.08;0.80;;;7.50;99.90;;;;;;5016005;28;20034;-80
2023/12/14 09:56:08;;;;;;;3.22;1.13;;;7.50;99.90;;;;;;5013515;28;20034;-81
2023/12/14 09:58:34;;;;;;;1.90;0.73;;;7.50;99.90;;;;;;5011639;28;20561;-81
2023/12/14 10:01:01;;;;;;;4.50;1.30;;;7.50;99.90;;;;;;5016598;28;20390;-80
2023/12/14 10:03:28;;;;;;;9.10;2.47;;;7.50;99.90;;;;;;5013900;28;20487;-81
2023/12/14 10:05:55;;;;;;;6.45;1.80;;;7.50;99.90;;;;;;5013443;28;20119;-81
2023/12/14 10:08:22;;;;;;;3.92;1.05;;;7.60;99.90;;;;;;5018610;28;20034;-81
2023/12/14 10:10:51;;;;;;;1.90;0.82;;;7.60;99.90;;;;;;5013053;28;20025;-81
2023/12/14 10:13:16;;;;;;;1.48;0.50;;;7.70;99.90;;;;;;5023506;28;20022;-81
2023/12/14 10:15:46;;;;;;;0.73;0.50;;;7.70;99.90;;;;;;5013457;28;20033;-81
2023/12/14 10:18:23;;;;;;;1.65;0.70;;;7.60;99.90;;;;;;5018983;28;20118;-80
2023/12/14 10:20:49;;;;;;;1.58;0.80;;;7.70;99.90;;;;;;5025328;28;20025;-81
2023/12/14 10:23:15;;;;;;;2.30;1.17;;;7.70;99.90;;;;;;5004935;28;20683;-81
2023/12/14 10:25:42;;;;;;;3.22;1.02;;;7.70;99.90;;;;;;5017659;28;20044;-81
2023/12/14 10:28:08;;;;;;;2.20;1.45;;;7.60;99.90;;;;;;5005227;28;20030;-80
2023/12/14 10:30:34;;;;;;;2.15;0.95;;;7.70;99.90;;;;;;5020866;28;20029;-83
2023/12/14 10:33:00;;;;;;;3.88;1.42;;;7.70;99.90;;;;;;5002988;28;20034;-81
2023/12/14 10:35:25;;;;;;;2.05;1.42;;;7.70;99.90;;;;;;5015868;28;20517;-80
2023/12/14 10:37:52;;;;;;;2.03;1.30;;;7.70;99.90;;;;;;5009381;28;20061;-80
2023/12/14 10:40:18;;;;;;;3.10;2.00;;;7.60;99.90;;;;;;5001506;28;20022;-81
2023/12/14 10:42:44;;;;;;;3.05;1.90;;;7.70;99.90;;;;;;5016282;28;20049;-81
2023/12/14 10:45:12;;;;;;;2.60;1.60;;;7.70;99.90;;;;;;5016301;28;20082;-81
2023/12/14 10:47:43;;;;;;;2.33;1.48;;;7.80;99.90;;;;;;5017536;28;20050;-81
2023/12/14 10:50:11;;;;;;;2.55;1.52;;;7.80;99.90;;;;;;5021698;28;20033;-81
2023/12/14 10:52:40;;;;;;;4.25;2.17;;;7.80;99.90;;;;;;5011632;28;20044;-80
2023/12/14 10:55:42;;;;;;;2.88;1.58;;;7.80;99.90;;;;;;5018315;28;20557;-80
2023/12/14 10:58:09;;;;;;;3.33;1.95;;;7.80;99.90;;;;;;5017112;28;20033;-80
2023/12/14 11:00:36;;;;;;;6.03;1.65;;;7.80;99.90;;;;;;5014191;28;20502;-81
2023/12/14 11:03:04;;;;;;;5.60;1.50;;;7.80;99.90;;;;;;4995812;28;20024;-80
2023/12/14 11:05:33;;;;;;;4.78;2.08;;;7.80;99.90;;;;;;5016169;28;20093;-81
2023/12/14 11:08:09;;;;;;;2.90;1.70;;;7.90;99.90;;;;;;5016286;28;20030;-80
2023/12/14 11:10:56;;;;;;;4.72;1.83;;;7.90;99.90;;;;;;5010158;28;20034;-81
2023/12/14 11:13:22;;;;;;;3.25;1.60;;;7.90;99.90;;;;;;5013678;28;20034;-81
2023/12/14 11:15:52;;;;;;;3.08;2.00;;;7.90;99.90;;;;;;4997617;28;20117;-81
2023/12/14 11:18:18;;;;;;;3.65;1.98;;;7.90;99.90;;;;;;5009274;28;20078;-81
2023/12/14 11:20:46;;;;;;;3.45;2.13;;;7.90;99.90;;;;;;5011686;28;20053;-80
2023/12/14 11:23:19;;;;;;;4.70;2.00;;;7.90;99.90;;;;;;5008863;28;20030;-81
2023/12/14 11:25:49;;;;;;;5.65;2.38;;;7.90;99.90;;;;;;4997177;28;20026;-81
2023/12/14 11:28:15;;;;;;;7.80;2.63;;;7.90;99.90;;;;;;5013136;28;20053;-81
2023/12/14 11:30:44;;;;;;;5.05;2.45;;;7.90;99.90;;;;;;5020669;28;20057;-81
2023/12/14 11:33:11;;;;;;;6.18;2.28;;;8.00;99.90;;;;;;5016445;28;20445;-81
2023/12/14 11:35:37;;;;;;;5.82;2.00;;;8.10;99.90;;;;;;5023757;28;20086;-81
2023/12/14 11:38:10;;;;;;;3.63;1.60;;;8.10;99.90;;;;;;5027773;28;20080;-81
2023/12/14 11:40:36;;;;;;;3.28;1.60;;;8.10;99.90;;;;;;5018936;28;20022;-80
2023/12/14 11:43:09;;;;;;;3.20;1.50;;;8.10;99.90;;;;;;4992222;28;20029;-80
2023/12/14 11:45:36;;;;;;;7.97;3.08;;;8.20;99.90;;;;;;5021729;28;20539;-84
2023/12/14 11:48:05;;;;;;;4.60;2.00;;;8.20;99.90;;;;;;5013253;28;20030;-82
2023/12/14 11:50:32;;;;;;;1.95;1.40;;;8.20;99.90;;;;;;5015172;28;20045;-81
2023/12/14 11:52:57;;;;;;;2.33;1.25;;;8.20;99.90;;;;;;5013294;28;20389;-81
2023/12/14 11:55:23;;;;;;;2.55;1.17;;;8.20;99.90;;;;;;5015496;28;20030;-81
2023/12/14 11:57:49;;;;;;;1.73;0.90;;;8.20;99.90;;;;;;5016550;28;20022;-78
2023/12/14 12:00:19;;;;;;;2.50;0.85;;;8.20;99.90;;;;;;5014872;28;20046;-80
2023/12/14 12:02:45;;;;;;;4.15;1.20;;;8.20;99.90;;;;;;5011271;28;20486;-81
2023/12/14 12:05:13;;;;;;;3.92;1.55;;;8.20;99.90;;;;;;5014091;28;20044;-79
2023/12/14 12:07:43;;;;;;;2.65;1.23;;;8.30;99.90;;;;;;5018987;28;20032;-80
2023/12/14 12:10:10;;;;;;;2.65;1.08;;;8.30;99.90;;;;;;5016859;28;20049;-80
2023/12/14 12:12:36;;;;;;;1.63;0.70;;;8.40;99.90;;;;;;5014857;28;20033;-80
2023/12/14 12:15:02;;;;;;;4.15;0.98;;;8.40;99.90;;;;;;5014451;28;20093;-81
2023/12/14 12:17:27;;;;;;;4.05;1.40;;;8.40;99.90;;;;;;5012703;28;20058;-82
2023/12/14 12:19:53;;;;;;;4.57;1.20;;;8.40;99.90;;;;;;5017025;28;20026;-81
2023/12/14 12:22:19;;;;;;;2.63;1.00;;;8.40;99.90;;;;;;5019715;28;20022;-81
2023/12/14 12:24:44;;;;;;;4.88;1.30;;;8.50;99.90;;;;;;5011138;28;20029;-81
2023/12/14 12:27:10;;;;;;;4.72;1.10;;;8.50;99.90;;;;;;5015644;28;20088;-81
2023/12/14 12:29:35;;;;;;;6.38;1.38;;;8.50;99.90;;;;;;5016424;28;20029;-81
2023/12/14 12:32:01;;;;;;;3.95;1.40;;;8.50;99.90;;;;;;5012926;28;20043;-81
2023/12/14 12:34:27;;;;;;;4.20;1.52;;;8.50;99.90;;;;;;5009094;28;20026;-82
2023/12/14 12:36:54;;;;;;;4.57;1.42;;;8.50;99.90;;;;;;5019737;28;20103;-81
2023/12/14 12:39:19;;;;;;;7.68;1.40;;;8.50;99.90;;;;;;5011286;28;20025;-81
2023/12/14 12:41:45;;;;;;;3.72;1.27;;;8.60;99.90;;;;;;5012451;28;20503;-80
2023/12/14 12:44:11;;;;;;;2.08;1.33;;;8.50;99.90;;;;;;5009294;28;20037;-80
2023/12/14 12:46:36;;;;;;;3.70;1.88;;;8.50;99.90;;;;;;5010518;28;20023;-79
2023/12/14 12:49:04;;;;;;;4.25;1.98;;;8.40;99.90;;;;;;5016659;28;20040;-80
2023/12/14 12:51:30;;;;;;;6.15;1.75;;;8.40;99.90;;;;;;4999962;28;20120;-81
2023/12/14 12:53:57;;;;;;;6.15;2.47;;;8.30;99.90;;;;;;5009190;28;20494;-80